sensor_id;sensor_type;location;lat;lon;timestamp;pressure;altitude;pressure_sealevel;temperature;humidity
13407;BME280;6774;48.208;10.766;2023-03-03T00:00:53;95641.97;;;2.48;85.51
13407;BME280;6774;48.208;10.766;2023-03-03T00:03:23;95632.94;;;2.52;85.23
13407;BME280;6774;48.208;10.766;2023-03-03T00:05:52;95634.03;;;2.60;85.19
13407;BME280;6774;48.208;10.766;2023-03-03T00:08:20;95629.50;;;2.52;84.37
13407;BME280;6774;48.208;10.766;2023-03-03T00:10:49;95638.97;;;2.63;84.62
13407;BME280;6774;48.208;10.766;2023-03-03T00:13:20;95641.56;;;2.63;84.67
13407;BME280;6774;48.208;10.766;2023-03-03T00:15:48;95632.94;;;2.52;85.46
13407;BME280;6774;48.208;10.766;2023-03-03T00:18:27;95640.34;;;2.47;85.76
13407;BME280;6774;48.208;10.766;2023-03-03T00:20:56;95631.81;;;2.45;85.83
13407;BME280;6774;48.208;10.766;2023-03-03T00:23:29;95631.28;;;2.51;86.24
13407;BME280;6774;48.208;10.766;2023-03-03T00:25:58;95635.97;;;2.58;85.62
13407;BME280;6774;48.208;10.766;2023-03-03T00:28:29;95634.31;;;2.56;85.82
13407;BME280;6774;48.208;10.766;2023-03-03T00:30:59;95638.97;;;2.63;85.72
13407;BME280;6774;48.208;10.766;2023-03-03T00:33:30;95639.41;;;2.68;85.18
13407;BME280;6774;48.208;10.766;2023-03-03T00:36:21;95640.34;;;2.67;85.21
13407;BME280;6774;48.208;10.766;2023-03-03T00:38:54;95639.13;;;2.71;84.64
13407;BME280;6774;48.208;10.766;2023-03-03T00:41:23;95643.50;;;2.70;84.63
13407;BME280;6774;48.208;10.766;2023-03-03T00:43:53;95637.34;;;2.71;84.95
13407;BME280;6774;48.208;10.766;2023-03-03T00:46:22;95645.00;;;2.73;85.02
13407;BME280;6774;48.208;10.766;2023-03-03T00:48:50;95640.91;;;2.70;84.65
13407;BME280;6774;48.208;10.766;2023-03-03T00:51:28;95636.78;;;2.68;85.00
13407;BME280;6774;48.208;10.766;2023-03-03T00:53:57;95642.53;;;2.62;84.24
13407;BME280;6774;48.208;10.766;2023-03-03T00:56:25;95637.84;;;2.55;84.72
13407;BME280;6774;48.208;10.766;2023-03-03T00:58:55;95636.38;;;2.72;84.20
13407;BME280;6774;48.208;10.766;2023-03-03T01:01:25;95639.53;;;2.56;83.82
13407;BME280;6774;48.208;10.766;2023-03-03T01:03:53;95640.47;;;2.55;84.67
13407;BME280;6774;48.208;10.766;2023-03-03T01:06:21;95635.41;;;2.64;83.75
13407;BME280;6774;48.208;10.766;2023-03-03T01:08:48;95640.59;;;2.64;84.19
13407;BME280;6774;48.208;10.766;2023-03-03T01:11:21;95633.34;;;2.58;83.55
13407;BME280;6774;48.208;10.766;2023-03-03T01:13:50;95646.75;;;2.43;84.27
13407;BME280;6774;48.208;10.766;2023-03-03T01:16:20;95645.94;;;2.43;83.90
13407;BME280;6774;48.208;10.766;2023-03-03T01:18:49;95650.75;;;2.47;83.46
13407;BME280;6774;48.208;10.766;2023-03-03T01:21:17;95641.25;;;2.46;83.85
13407;BME280;6774;48.208;10.766;2023-03-03T01:23:45;95635.66;;;2.41;84.36
13407;BME280;6774;48.208;10.766;2023-03-03T01:26:13;95637.56;;;2.39;84.05
13407;BME280;6774;48.208;10.766;2023-03-03T01:28:41;95633.44;;;2.46;84.27
13407;BME280;6774;48.208;10.766;2023-03-03T01:31:08;95632.78;;;2.44;84.88
13407;BME280;6774;48.208;10.766;2023-03-03T01:33:38;95635.94;;;2.38;84.93
13407;BME280;6774;48.208;10.766;2023-03-03T01:36:06;95644.13;;;2.34;85.53
13407;BME280;6774;48.208;10.766;2023-03-03T01:38:35;95636.47;;;2.42;85.79
13407;BME280;6774;48.208;10.766;2023-03-03T01:41:04;95634.00;;;2.31;85.84
13407;BME280;6774;48.208;10.766;2023-03-03T01:43:32;95633.97;;;2.21;85.85
13407;BME280;6774;48.208;10.766;2023-03-03T01:46:25;95636.03;;;2.27;85.70
13407;BME280;6774;48.208;10.766;2023-03-03T01:48:58;95629.22;;;2.45;85.28
13407;BME280;6774;48.208;10.766;2023-03-03T01:51:31;95621.41;;;2.45;85.86
13407;BME280;6774;48.208;10.766;2023-03-03T01:54:02;95625.78;;;2.45;84.81
13407;BME280;6774;48.208;10.766;2023-03-03T01:56:30;95628.81;;;2.40;85.03
13407;BME280;6774;48.208;10.766;2023-03-03T01:59:00;95627.38;;;2.26;84.44
13407;BME280;6774;48.208;10.766;2023-03-03T02:01:31;95631.34;;;2.11;84.96
13407;BME280;6774;48.208;10.766;2023-03-03T02:04:02;95630.88;;;1.96;85.41
13407;BME280;6774;48.208;10.766;2023-03-03T02:06:33;95631.16;;;1.93;85.56
13407;BME280;6774;48.208;10.766;2023-03-03T02:09:08;95630.19;;;1.94;85.14
13407;BME280;6774;48.208;10.766;2023-03-03T02:11:40;95627.03;;;2.00;85.28
13407;BME280;6774;48.208;10.766;2023-03-03T02:14:10;95629.50;;;1.92;84.64
13407;BME280;6774;48.208;10.766;2023-03-03T02:16:41;95630.72;;;1.88;83.94
13407;BME280;6774;48.208;10.766;2023-03-03T02:19:17;95612.75;;;1.85;84.96
13407;BME280;6774;48.208;10.766;2023-03-03T02:21:49;95620.91;;;1.71;84.58
13407;BME280;6774;48.208;10.766;2023-03-03T02:24:22;95620.88;;;1.61;85.48
13407;BME280;6774;48.208;10.766;2023-03-03T02:26:53;95617.53;;;1.50;85.67
13407;BME280;6774;48.208;10.766;2023-03-03T02:29:22;95624.66;;;1.48;85.48
13407;BME280;6774;48.208;10.766;2023-03-03T02:31:51;95618.69;;;1.57;85.37
13407;BME280;6774;48.208;10.766;2023-03-03T02:34:20;95612.59;;;1.47;85.04
13407;BME280;6774;48.208;10.766;2023-03-03T02:36:48;95611.97;;;1.33;85.57
13407;BME280;6774;48.208;10.766;2023-03-03T02:39:18;95610.78;;;1.37;85.55
13407;BME280;6774;48.208;10.766;2023-03-03T02:41:50;95607.28;;;1.27;85.73
13407;BME280;6774;48.208;10.766;2023-03-03T02:44:27;95609.38;;;1.33;86.82
13407;BME280;6774;48.208;10.766;2023-03-03T02:46:57;95606.28;;;1.39;86.55
13407;BME280;6774;48.208;10.766;2023-03-03T02:49:27;95603.84;;;1.48;86.46
13407;BME280;6774;48.208;10.766;2023-03-03T02:51:57;95600.03;;;1.52;86.06
13407;BME280;6774;48.208;10.766;2023-03-03T02:54:27;95600.03;;;1.52;86.25
13407;BME280;6774;48.208;10.766;2023-03-03T02:56:56;95600.81;;;1.42;86.53
13407;BME280;6774;48.208;10.766;2023-03-03T02:59:27;95606.00;;;1.42;86.08
13407;BME280;6774;48.208;10.766;2023-03-03T03:01:56;95605.50;;;1.49;85.14
13407;BME280;6774;48.208;10.766;2023-03-03T03:04:25;95605.22;;;1.52;85.50
13407;BME280;6774;48.208;10.766;2023-03-03T03:06:54;95607.13;;;1.50;85.26
13407;BME280;6774;48.208;10.766;2023-03-03T03:09:25;95602.13;;;1.37;86.07
13407;BME280;6774;48.208;10.766;2023-03-03T03:11:54;95609.78;;;1.29;85.50
13407;BME280;6774;48.208;10.766;2023-03-03T03:14:24;95611.81;;;1.04;84.58
13407;BME280;6774;48.208;10.766;2023-03-03T03:16:54;95614.75;;;1.00;84.73
13407;BME280;6774;48.208;10.766;2023-03-03T03:19:22;95619.97;;;1.00;84.49
13407;BME280;6774;48.208;10.766;2023-03-03T03:21:50;95614.75;;;1.00;84.49
13407;BME280;6774;48.208;10.766;2023-03-03T03:24:19;95608.66;;;1.01;85.13
13407;BME280;6774;48.208;10.766;2023-03-03T03:26:53;95620.97;;;0.88;85.21
13407;BME280;6774;48.208;10.766;2023-03-03T03:29:22;95620.34;;;0.95;85.12
13407;BME280;6774;48.208;10.766;2023-03-03T03:31:50;95612.44;;;0.97;84.71
13407;BME280;6774;48.208;10.766;2023-03-03T03:34:20;95609.56;;;1.00;85.07
13407;BME280;6774;48.208;10.766;2023-03-03T03:36:49;95609.84;;;0.97;84.38
13407;BME280;6774;48.208;10.766;2023-03-03T03:39:18;95607.69;;;1.02;84.11
13407;BME280;6774;48.208;10.766;2023-03-03T03:41:48;95617.56;;;1.08;84.96
13407;BME280;6774;48.208;10.766;2023-03-03T03:44:16;95622.88;;;1.06;84.63
13407;BME280;6774;48.208;10.766;2023-03-03T03:46:44;95621.03;;;1.18;85.43
13407;BME280;6774;48.208;10.766;2023-03-03T03:49:12;95622.09;;;1.36;86.29
13407;BME280;6774;48.208;10.766;2023-03-03T03:51:41;95620.56;;;1.55;85.64
13407;BME280;6774;48.208;10.766;2023-03-03T03:54:13;95622.22;;;1.56;85.54
13407;BME280;6774;48.208;10.766;2023-03-03T03:56:41;95628.94;;;1.58;85.28
13407;BME280;6774;48.208;10.766;2023-03-03T03:59:10;95613.75;;;1.63;84.82
13407;BME280;6774;48.208;10.766;2023-03-03T04:01:38;95623.38;;;1.73;84.67
13407;BME280;6774;48.208;10.766;2023-03-03T04:04:06;95630.81;;;1.77;84.72
13407;BME280;6774;48.208;10.766;2023-03-03T04:06:34;95631.31;;;1.71;83.98
13407;BME280;6774;48.208;10.766;2023-03-03T04:09:05;95621.03;;;1.69;84.91
13407;BME280;6774;48.208;10.766;2023-03-03T04:11:34;95624.59;;;1.68;84.74
13407;BME280;6774;48.208;10.766;2023-03-03T04:14:04;95613.16;;;1.81;84.36
13407;BME280;6774;48.208;10.766;2023-03-03T04:16:33;95623.69;;;1.79;84.26
13407;BME280;6774;48.208;10.766;2023-03-03T04:19:02;95618.22;;;1.82;85.17
13407;BME280;6774;48.208;10.766;2023-03-03T04:21:31;95623.84;;;1.87;85.27
13407;BME280;6774;48.208;10.766;2023-03-03T04:24:00;95631.41;;;1.90;84.79
13407;BME280;6774;48.208;10.766;2023-03-03T04:26:30;95630.88;;;1.96;84.62
13407;BME280;6774;48.208;10.766;2023-03-03T04:29:01;95635.66;;;2.01;84.85
13407;BME280;6774;48.208;10.766;2023-03-03T04:31:30;95632.97;;;2.03;85.35
13407;BME280;6774;48.208;10.766;2023-03-03T04:33:58;95630.91;;;2.06;85.43
13407;BME280;6774;48.208;10.766;2023-03-03T04:36:27;95629.81;;;2.09;85.12
13407;BME280;6774;48.208;10.766;2023-03-03T04:38:56;95636.78;;;2.08;85.26
13407;BME280;6774;48.208;10.766;2023-03-03T04:41:24;95632.56;;;2.07;85.12
13407;BME280;6774;48.208;10.766;2023-03-03T04:43:54;95627.78;;;2.12;84.50
13407;BME280;6774;48.208;10.766;2023-03-03T04:46:21;95627.38;;;2.17;84.96
13407;BME280;6774;48.208;10.766;2023-03-03T04:48:50;95617.41;;;2.22;85.15
13407;BME280;6774;48.208;10.766;2023-03-03T04:51:19;95617.25;;;2.23;84.90
13407;BME280;6774;48.208;10.766;2023-03-03T04:53:47;95622.47;;;2.23;84.60
13407;BME280;6774;48.208;10.766;2023-03-03T04:56:15;95620.25;;;2.19;84.77
13407;BME280;6774;48.208;10.766;2023-03-03T04:58:43;95620.69;;;2.24;84.20
13407;BME280;6774;48.208;10.766;2023-03-03T05:01:13;95618.06;;;2.24;84.23
13407;BME280;6774;48.208;10.766;2023-03-03T05:03:41;95619.59;;;2.26;84.56
13407;BME280;6774;48.208;10.766;2023-03-03T05:06:10;95622.75;;;2.30;85.01
13407;BME280;6774;48.208;10.766;2023-03-03T05:08:38;95617.56;;;2.30;84.52
13407;BME280;6774;48.208;10.766;2023-03-03T05:11:08;95620.84;;;2.32;84.62
13407;BME280;6774;48.208;10.766;2023-03-03T05:13:36;95617.56;;;2.30;84.45
13407;BME280;6774;48.208;10.766;2023-03-03T05:16:05;95614.00;;;2.31;84.46
13407;BME280;6774;48.208;10.766;2023-03-03T05:18:34;95617.56;;;2.30;84.59
13407;BME280;6774;48.208;10.766;2023-03-03T05:21:02;95613.56;;;2.36;84.15
13407;BME280;6774;48.208;10.766;2023-03-03T05:23:30;95624.97;;;2.44;84.24
13407;BME280;6774;48.208;10.766;2023-03-03T05:25:58;95625.53;;;2.38;84.54
13407;BME280;6774;48.208;10.766;2023-03-03T05:28:26;95621.16;;;2.48;84.29
13407;BME280;6774;48.208;10.766;2023-03-03T05:30:53;95629.34;;;2.53;84.63
13407;BME280;6774;48.208;10.766;2023-03-03T05:33:21;95632.25;;;2.50;84.70
13407;BME280;6774;48.208;10.766;2023-03-03T05:35:54;95634.56;;;2.53;84.19
13407;BME280;6774;48.208;10.766;2023-03-03T05:38:22;95642.09;;;2.47;84.13
13407;BME280;6774;48.208;10.766;2023-03-03T05:40:50;95634.03;;;2.50;84.01
13407;BME280;6774;48.208;10.766;2023-03-03T05:43:18;95649.22;;;2.54;83.89
13407;BME280;6774;48.208;10.766;2023-03-03T05:45:46;95645.13;;;2.52;84.02
13407;BME280;6774;48.208;10.766;2023-03-03T05:48:14;95652.81;;;2.53;84.49
13407;BME280;6774;48.208;10.766;2023-03-03T05:50:41;95656.50;;;2.51;84.62
13407;BME280;6774;48.208;10.766;2023-03-03T05:53:10;95654.44;;;2.45;84.70
13407;BME280;6774;48.208;10.766;2023-03-03T05:55:38;95655.69;;;2.50;84.16
13407;BME280;6774;48.208;10.766;2023-03-03T05:58:06;95658.00;;;2.53;84.58
13407;BME280;6774;48.208;10.766;2023-03-03T06:00:35;95668.03;;;2.48;84.52
13407;BME280;6774;48.208;10.766;2023-03-03T06:03:02;95672.69;;;2.54;84.45
13407;BME280;6774;48.208;10.766;2023-03-03T06:05:30;95666.66;;;2.54;84.23
13407;BME280;6774;48.208;10.766;2023-03-03T06:07:58;95667.47;;;2.54;84.15
13407;BME280;6774;48.208;10.766;2023-03-03T06:10:28;95669.91;;;2.46;84.99
13407;BME280;6774;48.208;10.766;2023-03-03T06:12:58;95668.44;;;2.53;84.40
13407;BME280;6774;48.208;10.766;2023-03-03T06:15:26;95674.31;;;2.55;84.30
13407;BME280;6774;48.208;10.766;2023-03-03T06:17:55;95676.94;;;2.55;84.42
13407;BME280;6774;48.208;10.766;2023-03-03T06:20:23;95688.59;;;2.51;84.64
13407;BME280;6774;48.208;10.766;2023-03-03T06:22:50;95677.63;;;2.48;84.69
13407;BME280;6774;48.208;10.766;2023-03-03T06:25:18;95686.41;;;2.56;85.11
13407;BME280;6774;48.208;10.766;2023-03-03T06:27:47;95683.91;;;2.55;85.06
13407;BME280;6774;48.208;10.766;2023-03-03T06:30:15;95684.97;;;2.33;86.02
13407;BME280;6774;48.208;10.766;2023-03-03T06:32:45;95692.50;;;2.36;85.60
13407;BME280;6774;48.208;10.766;2023-03-03T06:35:14;95689.25;;;2.44;86.07
13407;BME280;6774;48.208;10.766;2023-03-03T06:37:43;95686.41;;;2.56;85.00
13407;BME280;6774;48.208;10.766;2023-03-03T06:40:12;95689.69;;;2.59;85.44
13407;BME280;6774;48.208;10.766;2023-03-03T06:42:40;95692.47;;;2.67;84.88
13407;BME280;6774;48.208;10.766;2023-03-03T06:45:10;95695.75;;;2.69;84.69
13407;BME280;6774;48.208;10.766;2023-03-03T06:47:38;95693.56;;;2.74;84.80
13407;BME280;6774;48.208;10.766;2023-03-03T06:50:07;95692.19;;;2.70;84.37
13407;BME280;6774;48.208;10.766;2023-03-03T06:52:34;95697.00;;;2.74;84.04
13407;BME280;6774;48.208;10.766;2023-03-03T06:55:10;95694.66;;;2.81;84.22
13407;BME280;6774;48.208;10.766;2023-03-03T06:57:38;95701.25;;;2.66;84.42
13407;BME280;6774;48.208;10.766;2023-03-03T07:00:16;95706.72;;;2.72;84.33
13407;BME280;6774;48.208;10.766;2023-03-03T07:02:46;95695.22;;;2.75;84.13
13407;BME280;6774;48.208;10.766;2023-03-03T07:05:16;95694.09;;;2.68;83.87
13407;BME280;6774;48.208;10.766;2023-03-03T07:07:44;95694.34;;;2.65;84.21
13407;BME280;6774;48.208;10.766;2023-03-03T07:10:19;95706.97;;;2.60;84.84
13407;BME280;6774;48.208;10.766;2023-03-03T07:12:48;95700.94;;;2.59;85.06
13407;BME280;6774;48.208;10.766;2023-03-03T07:15:20;95702.91;;;2.86;84.14
13407;BME280;6774;48.208;10.766;2023-03-03T07:17:51;95719.66;;;2.83;84.24
13407;BME280;6774;48.208;10.766;2023-03-03T07:20:21;95713.34;;;2.86;84.50
13407;BME280;6774;48.208;10.766;2023-03-03T07:22:49;95719.09;;;2.90;84.10
13407;BME280;6774;48.208;10.766;2023-03-03T07:25:29;95718.28;;;2.99;84.20
13407;BME280;6774;48.208;10.766;2023-03-03T07:28:00;95715.13;;;3.05;84.00
13407;BME280;6774;48.208;10.766;2023-03-03T07:30:39;95727.59;;;3.01;84.40
13407;BME280;6774;48.208;10.766;2023-03-03T07:33:17;95730.22;;;3.01;84.24
13407;BME280;6774;48.208;10.766;2023-03-03T07:35:45;95733.69;;;3.11;84.43
13407;BME280;6774;48.208;10.766;2023-03-03T07:38:23;95741.50;;;3.11;83.81
13407;BME280;6774;48.208;10.766;2023-03-03T07:40:52;95737.22;;;3.10;83.59
13407;BME280;6774;48.208;10.766;2023-03-03T07:43:34;95744.09;;;3.11;83.01
13407;BME280;6774;48.208;10.766;2023-03-03T07:46:18;95749.19;;;3.23;82.59
13407;BME280;6774;48.208;10.766;2023-03-03T07:48:49;95743.97;;;3.23;82.84
13407;BME280;6774;48.208;10.766;2023-03-03T07:51:20;95743.81;;;3.34;82.22
13407;BME280;6774;48.208;10.766;2023-03-03T07:53:52;95753.44;;;3.24;81.80
13407;BME280;6774;48.208;10.766;2023-03-03T07:56:27;95747.09;;;3.17;82.47
13407;BME280;6774;48.208;10.766;2023-03-03T07:58:57;95749.88;;;3.25;81.48
13407;BME280;6774;48.208;10.766;2023-03-03T08:01:38;95755.09;;;3.25;81.85
13407;BME280;6774;48.208;10.766;2023-03-03T08:04:16;95745.75;;;3.32;82.06
13407;BME280;6774;48.208;10.766;2023-03-03T08:06:47;95744.78;;;3.33;81.88
13407;BME280;6774;48.208;10.766;2023-03-03T08:09:36;95745.22;;;3.48;81.82
13407;BME280;6774;48.208;10.766;2023-03-03T08:12:30;95738.22;;;3.48;81.72
13407;BME280;6774;48.208;10.766;2023-03-03T08:15:14;95745.19;;;3.38;82.71
13407;BME280;6774;48.208;10.766;2023-03-03T08:17:44;95733.81;;;3.49;82.65
13407;BME280;6774;48.208;10.766;2023-03-03T08:20:40;95745.47;;;3.54;82.21
13407;BME280;6774;48.208;10.766;2023-03-03T08:23:09;95746.84;;;3.39;82.50
13407;BME280;6774;48.208;10.766;2023-03-03T08:25:37;95739.16;;;3.57;82.38
13407;BME280;6774;48.208;10.766;2023-03-03T08:28:05;95736.41;;;3.58;81.95
13407;BME280;6774;48.208;10.766;2023-03-03T08:30:32;95739.03;;;3.58;82.42
13407;BME280;6774;48.208;10.766;2023-03-03T08:33:02;95754.22;;;3.72;82.18
13407;BME280;6774;48.208;10.766;2023-03-03T08:35:29;95740.09;;;3.65;81.90
13407;BME280;6774;48.208;10.766;2023-03-03T08:37:57;95756.03;;;3.62;82.10
13407;BME280;6774;48.208;10.766;2023-03-03T08:40:26;95745.19;;;3.57;82.78
13407;BME280;6774;48.208;10.766;2023-03-03T08:42:53;95745.47;;;3.54;82.92
13407;BME280;6774;48.208;10.766;2023-03-03T08:45:24;95750.09;;;3.80;81.88
13407;BME280;6774;48.208;10.766;2023-03-03T08:47:52;95752.03;;;3.87;81.21
13407;BME280;6774;48.208;10.766;2023-03-03T08:50:22;95746.78;;;3.97;80.91
13407;BME280;6774;48.208;10.766;2023-03-03T08:52:50;95746.47;;;4.00;80.49
13407;BME280;6774;48.208;10.766;2023-03-03T08:55:17;95755.59;;;3.96;80.45
13407;BME280;6774;48.208;10.766;2023-03-03T08:57:45;95756.25;;;3.98;80.48
13407;BME280;6774;48.208;10.766;2023-03-03T09:00:15;95765.44;;;4.02;80.78
13407;BME280;6774;48.208;10.766;2023-03-03T09:02:44;95762.56;;;4.05;80.79
13407;BME280;6774;48.208;10.766;2023-03-03T09:05:12;95762.41;;;4.07;80.70
13407;BME280;6774;48.208;10.766;2023-03-03T09:07:43;95762.41;;;4.07;80.74
13407;BME280;6774;48.208;10.766;2023-03-03T09:10:15;95759.66;;;4.08;81.45
13407;BME280;6774;48.208;10.766;2023-03-03T09:12:44;95762.53;;;4.15;80.96
13407;BME280;6774;48.208;10.766;2023-03-03T09:15:20;95762.34;;;4.36;80.65
13407;BME280;6774;48.208;10.766;2023-03-03T09:17:49;95762.13;;;4.47;80.36
13407;BME280;6774;48.208;10.766;2023-03-03T09:20:32;95763.38;;;4.52;80.42
13407;BME280;6774;48.208;10.766;2023-03-03T09:23:24;95777.88;;;4.65;80.33
13407;BME280;6774;48.208;10.766;2023-03-03T09:25:54;95778.03;;;4.91;78.17
13407;BME280;6774;48.208;10.766;2023-03-03T09:28:24;95778.41;;;5.23;79.37
13407;BME280;6774;48.208;10.766;2023-03-03T09:30:53;95783.03;;;5.65;79.43
13407;BME280;6774;48.208;10.766;2023-03-03T09:33:26;95786.75;;;6.16;77.85
13407;BME280;6774;48.208;10.766;2023-03-03T09:36:02;95776.31;;;6.84;75.65
13407;BME280;6774;48.208;10.766;2023-03-03T09:38:39;95771.06;;;7.34;71.45
13407;BME280;6774;48.208;10.766;2023-03-03T09:41:20;95777.63;;;7.47;68.84
13407;BME280;6774;48.208;10.766;2023-03-03T09:44:14;95780.81;;;7.99;67.67
13407;BME280;6774;48.208;10.766;2023-03-03T09:46:54;95786.22;;;7.81;66.63
13407;BME280;6774;48.208;10.766;2023-03-03T09:49:31;95788.34;;;7.78;67.54
13407;BME280;6774;48.208;10.766;2023-03-03T09:52:11;95790.97;;;8.18;65.81
13407;BME280;6774;48.208;10.766;2023-03-03T09:55:02;95798.88;;;8.35;66.28
13407;BME280;6774;48.208;10.766;2023-03-03T09:57:45;95798.34;;;8.55;66.64
13407;BME280;6774;48.208;10.766;2023-03-03T10:00:44;95802.56;;;8.73;66.60
13407;BME280;6774;48.208;10.766;2023-03-03T10:03:41;95797.50;;;8.63;65.04
13407;BME280;6774;48.208;10.766;2023-03-03T10:06:21;95798.59;;;8.77;65.31
13407;BME280;6774;48.208;10.766;2023-03-03T10:09:03;95796.97;;;8.76;64.38
13407;BME280;6774;48.208;10.766;2023-03-03T10:11:37;95799.78;;;8.66;64.25
13407;BME280;6774;48.208;10.766;2023-03-03T10:14:38;95803.25;;;8.67;65.66
13407;BME280;6774;48.208;10.766;2023-03-03T10:17:21;95801.38;;;8.83;65.96
13407;BME280;6774;48.208;10.766;2023-03-03T10:20:16;95795.03;;;8.70;64.85
13407;BME280;6774;48.208;10.766;2023-03-03T10:22:51;95805.94;;;8.50;65.14
13407;BME280;6774;48.208;10.766;2023-03-03T10:25:28;95799.53;;;8.45;65.28
13407;BME280;6774;48.208;10.766;2023-03-03T10:28:19;95794.72;;;8.48;65.43
13407;BME280;6774;48.208;10.766;2023-03-03T10:31:00;95793.41;;;8.61;64.94
13407;BME280;6774;48.208;10.766;2023-03-03T10:33:45;95802.78;;;8.55;65.56
13407;BME280;6774;48.208;10.766;2023-03-03T10:36:25;95796.50;;;8.72;66.11
13407;BME280;6774;48.208;10.766;2023-03-03T10:39:04;95801.56;;;8.82;65.46
13407;BME280;6774;48.208;10.766;2023-03-03T10:41:50;95806.97;;;8.89;65.09
13407;BME280;6774;48.208;10.766;2023-03-03T10:44:41;95806.00;;;8.81;65.04
13407;BME280;6774;48.208;10.766;2023-03-03T10:47:33;95809.00;;;8.70;64.78
13407;BME280;6774;48.208;10.766;2023-03-03T10:50:15;95805.44;;;8.47;64.74
13407;BME280;6774;48.208;10.766;2023-03-03T10:52:48;95798.88;;;8.35;65.12
13407;BME280;6774;48.208;10.766;2023-03-03T10:55:33;95803.13;;;8.27;65.30
13407;BME280;6774;48.208;10.766;2023-03-03T10:58:42;95799.16;;;8.32;65.47
13407;BME280;6774;48.208;10.766;2023-03-03T11:01:20;95804.41;;;8.64;66.30
13407;BME280;6774;48.208;10.766;2023-03-03T11:04:19;95801.38;;;8.92;65.12
13407;BME280;6774;48.208;10.766;2023-03-03T11:06:53;95790.03;;;8.91;64.41
13407;BME280;6774;48.208;10.766;2023-03-03T11:09:44;95799.19;;;9.43;64.54
13407;BME280;6774;48.208;10.766;2023-03-03T11:12:26;95795.22;;;9.69;64.84
13407;BME280;6774;48.208;10.766;2023-03-03T11:15:08;95795.91;;;9.86;62.58
13407;BME280;6774;48.208;10.766;2023-03-03T11:17:53;95801.91;;;9.80;62.44
13407;BME280;6774;48.208;10.766;2023-03-03T11:20:30;95802.13;;;9.71;61.50
13407;BME280;6774;48.208;10.766;2023-03-03T11:23:09;95795.28;;;9.61;62.72
13407;BME280;6774;48.208;10.766;2023-03-03T11:25:47;95794.38;;;9.69;62.31
13407;BME280;6774;48.208;10.766;2023-03-03T11:28:30;95796.13;;;9.77;61.72
13407;BME280;6774;48.208;10.766;2023-03-03T11:31:12;95793.44;;;9.85;61.25
13407;BME280;6774;48.208;10.766;2023-03-03T11:33:54;95791.19;;;9.51;61.91
13407;BME280;6774;48.208;10.766;2023-03-03T11:36:27;95787.13;;;9.71;62.33
13407;BME280;6774;48.208;10.766;2023-03-03T11:39:02;95790.47;;;10.11;63.85
13407;BME280;6774;48.208;10.766;2023-03-03T11:41:35;95797.75;;;10.46;63.21
13407;BME280;6774;48.208;10.766;2023-03-03T11:44:14;95781.38;;;10.51;60.30
13407;BME280;6774;48.208;10.766;2023-03-03T11:46:47;95782.94;;;10.60;60.62
13407;BME280;6774;48.208;10.766;2023-03-03T11:49:21;95780.47;;;10.59;60.74
13407;BME280;6774;48.208;10.766;2023-03-03T11:52:00;95781.75;;;10.63;59.90
13407;BME280;6774;48.208;10.766;2023-03-03T11:54:33;95774.38;;;10.20;60.31
13407;BME280;6774;48.208;10.766;2023-03-03T11:57:15;95779.66;;;10.43;60.84
13407;BME280;6774;48.208;10.766;2023-03-03T12:00:00;95770.56;;;10.75;61.54
13407;BME280;6774;48.208;10.766;2023-03-03T12:02:56;95760.06;;;11.11;60.51
13407;BME280;6774;48.208;10.766;2023-03-03T12:05:35;95753.97;;;11.26;59.82
13407;BME280;6774;48.208;10.766;2023-03-03T12:08:15;95760.19;;;11.39;58.93
13407;BME280;6774;48.208;10.766;2023-03-03T12:10:53;95765.66;;;11.38;59.89
13407;BME280;6774;48.208;10.766;2023-03-03T12:13:31;95761.72;;;11.13;60.86
13407;BME280;6774;48.208;10.766;2023-03-03T12:16:06;95764.00;;;11.01;61.36
13407;BME280;6774;48.208;10.766;2023-03-03T12:19:02;95759.72;;;10.56;62.17
13407;BME280;6774;48.208;10.766;2023-03-03T12:21:45;95760.97;;;10.30;62.41
13407;BME280;6774;48.208;10.766;2023-03-03T12:24:29;95759.22;;;10.22;62.44
13407;BME280;6774;48.208;10.766;2023-03-03T12:27:10;95754.09;;;10.21;63.10
13407;BME280;6774;48.208;10.766;2023-03-03T12:29:41;95752.88;;;10.32;63.53
13407;BME280;6774;48.208;10.766;2023-03-03T12:32:24;95744.88;;;10.40;62.88
13407;BME280;6774;48.208;10.766;2023-03-03T12:34:59;95747.53;;;10.25;62.56
13407;BME280;6774;48.208;10.766;2023-03-03T12:37:46;95749.16;;;10.26;63.13
13407;BME280;6774;48.208;10.766;2023-03-03T12:40:18;95748.41;;;10.32;62.95
13407;BME280;6774;48.208;10.766;2023-03-03T12:45:55;95751.53;;;10.50;63.09
13407;BME280;6774;48.208;10.766;2023-03-03T12:48:32;95750.81;;;10.57;62.49
13407;BME280;6774;48.208;10.766;2023-03-03T12:51:08;95755.38;;;10.63;62.38
13407;BME280;6774;48.208;10.766;2023-03-03T12:54:11;95744.44;;;10.66;62.83
13407;BME280;6774;48.208;10.766;2023-03-03T12:56:44;95742.09;;;10.71;62.68
13407;BME280;6774;48.208;10.766;2023-03-03T12:59:19;95742.09;;;10.71;62.07
13407;BME280;6774;48.208;10.766;2023-03-03T13:01:58;95742.72;;;10.73;62.16
13407;BME280;6774;48.208;10.766;2023-03-03T13:04:35;95752.19;;;10.67;62.24
13407;BME280;6774;48.208;10.766;2023-03-03T13:07:10;95751.19;;;10.83;62.24
13407;BME280;6774;48.208;10.766;2023-03-03T13:09:58;95750.47;;;10.89;62.01
13407;BME280;6774;48.208;10.766;2023-03-03T13:12:34;95743.25;;;10.98;61.84
13407;BME280;6774;48.208;10.766;2023-03-03T13:15:12;95736.50;;;11.10;61.27
13407;BME280;6774;48.208;10.766;2023-03-03T13:17:50;95747.19;;;11.23;60.85
13407;BME280;6774;48.208;10.766;2023-03-03T13:20:32;95754.38;;;11.44;61.11
13407;BME280;6774;48.208;10.766;2023-03-03T13:23:06;95752.78;;;11.50;60.03
13407;BME280;6774;48.208;10.766;2023-03-03T13:25:46;95749.13;;;11.51;59.90
13407;BME280;6774;48.208;10.766;2023-03-03T13:28:21;95745.72;;;11.35;59.53
13407;BME280;6774;48.208;10.766;2023-03-03T13:30:57;95737.34;;;11.32;59.77
13407;BME280;6774;48.208;10.766;2023-03-03T13:33:29;95736.50;;;11.46;60.29
13407;BME280;6774;48.208;10.766;2023-03-03T13:36:01;95740.06;;;11.60;60.77
13407;BME280;6774;48.208;10.766;2023-03-03T13:38:31;95742.38;;;11.63;59.98
13407;BME280;6774;48.208;10.766;2023-03-03T13:41:06;95740.91;;;11.60;59.61
13407;BME280;6774;48.208;10.766;2023-03-03T13:43:42;95728.81;;;11.51;59.05
13407;BME280;6774;48.208;10.766;2023-03-03T13:46:17;95725.84;;;11.39;59.49